Brevard, NC (28712)

9:06 AM EST on February 28, 2017 (GMT -0500)
Near Cedar Mountain | | Change Station

Elev 3215 ft 35.13 °N, 82.72 °W | Updated 56 seconds ago

Mostly Cloudy
Mostly Cloudy
51.6 °F
Feels Like 51.6 °F
N
1.0
Wind Variable Wind from NNW
Gusts 5.0 mph

Today
High -- | Low -- °F
--% Chance of Precip.
Yesterday
High -- | Low -- °F
Precip. -- in
Pressure 30.28 in
Visibility 10.0 miles
Clouds Scattered Clouds 1700 ft
Dew Point 45 °F
Humidity 79%
Rainfall 0.00 in
Snow Depth Not available.
7:01 AM 6:25 PM
Waxing Crescent, 5% visible
METAR KAVL 281354Z 15003KT 10SM SCT017 09/02 A3030 RMK AO2 SLP253 T00940017
Pressure 30.28 in
Visibility 10.0 miles
Clouds Scattered Clouds 1700 ft
Dew Point 45 °F
Humidity 79%
Rainfall 0.00 in
Snow Depth Not available.
7:01 AM 6:25 PM
Waxing Crescent, 5% visible
METAR KAVL 281354Z 15003KT 10SM SCT017 09/02 A3030 RMK AO2 SLP253 T00940017

Get Your Daily Forecast Email!

Thanks for signing up!

Be on the lookout for a verification email in your inbox.

You'll start receiving the daily forecast at 8 AM.

×

10-Day Weather Forecast

Almanac

Astronomy

Feb. 28, 2017 Rise Set
Actual Time
Civil Twilight
Nautical Twilight
Astronomical Twilight
Moon
Length of Visible Light
Length of Day
Tomorrow will be .
, % of the Moon is Illuminated

Today's Extremes

State Highs State Lows

Community

WunderPhotos

Upload Photos

1,962,540 photos uploaded!

WunderBlog® & News

Nearby

Air Quality

  Air Quality AQ Index Pollutant
Not available.

Snow Depth

Station Depth Elevation

Earthquake Activity

City Distance Mag. Time & Date
Minimum magnitude displayed is 2.5.

Coastal Water Temperatures

Place Temperature

Stations

Nearby Weather Stations

Station Location Temp. Windchill Dew Point Humidity Wind Precip. Elev Updated Type
                   

Watches & Warnings

There are currently no watches in effect.